sensor_id;sensor_type;location;lat;lon;timestamp;P1;durP1;ratioP1;P2;durP2;ratioP2
62332;SDS011;48624;49.812;8.562;2023-02-08T00:01:12;18.30;;;9.13;;
62332;SDS011;48624;49.812;8.562;2023-02-08T00:03:39;17.93;;;9.50;;
62332;SDS011;48624;49.812;8.562;2023-02-08T00:06:05;17.43;;;8.37;;
62332;SDS011;48624;49.812;8.562;2023-02-08T00:08:32;15.67;;;9.53;;
62332;SDS011;48624;49.812;8.562;2023-02-08T00:10:58;13.30;;;8.27;;
62332;SDS011;48624;49.812;8.562;2023-02-08T00:13:24;13.63;;;7.67;;
62332;SDS011;48624;49.812;8.562;2023-02-08T00:15:50;20.03;;;9.13;;
62332;SDS011;48624;49.812;8.562;2023-02-08T00:18:17;15.27;;;9.00;;
62332;SDS011;48624;49.812;8.562;2023-02-08T00:20:42;14.03;;;8.43;;
62332;SDS011;48624;49.812;8.562;2023-02-08T00:23:08;15.00;;;8.83;;
62332;SDS011;48624;49.812;8.562;2023-02-08T00:25:34;16.50;;;9.33;;
62332;SDS011;48624;49.812;8.562;2023-02-08T00:28:00;14.17;;;8.57;;
62332;SDS011;48624;49.812;8.562;2023-02-08T00:30:25;15.73;;;8.43;;
62332;SDS011;48624;49.812;8.562;2023-02-08T00:32:50;21.83;;;9.87;;
62332;SDS011;48624;49.812;8.562;2023-02-08T00:35:16;16.50;;;8.63;;
62332;SDS011;48624;49.812;8.562;2023-02-08T00:37:41;16.00;;;9.33;;
62332;SDS011;48624;49.812;8.562;2023-02-08T00:40:06;14.53;;;8.60;;
62332;SDS011;48624;49.812;8.562;2023-02-08T00:42:32;16.50;;;9.20;;
62332;SDS011;48624;49.812;8.562;2023-02-08T00:44:58;17.27;;;10.00;;
62332;SDS011;48624;49.812;8.562;2023-02-08T00:47:23;18.67;;;10.37;;
62332;SDS011;48624;49.812;8.562;2023-02-08T00:49:49;23.60;;;11.43;;
62332;SDS011;48624;49.812;8.562;2023-02-08T00:52:14;17.63;;;9.83;;
62332;SDS011;48624;49.812;8.562;2023-02-08T00:54:40;18.47;;;10.63;;
62332;SDS011;48624;49.812;8.562;2023-02-08T00:57:06;17.10;;;10.17;;
62332;SDS011;48624;49.812;8.562;2023-02-08T00:59:32;14.97;;;9.00;;
62332;SDS011;48624;49.812;8.562;2023-02-08T01:01:58;18.43;;;9.60;;
62332;SDS011;48624;49.812;8.562;2023-02-08T01:04:23;14.30;;;9.50;;
62332;SDS011;48624;49.812;8.562;2023-02-08T01:06:48;17.50;;;9.53;;
62332;SDS011;48624;49.812;8.562;2023-02-08T01:09:15;15.10;;;8.83;;
62332;SDS011;48624;49.812;8.562;2023-02-08T01:11:40;19.33;;;10.13;;
62332;SDS011;48624;49.812;8.562;2023-02-08T01:14:06;18.30;;;10.23;;
62332;SDS011;48624;49.812;8.562;2023-02-08T01:16:32;18.83;;;10.37;;
62332;SDS011;48624;49.812;8.562;2023-02-08T01:18:58;15.23;;;9.63;;
62332;SDS011;48624;49.812;8.562;2023-02-08T01:21:26;16.30;;;9.80;;
62332;SDS011;48624;49.812;8.562;2023-02-08T01:23:53;18.67;;;10.30;;
62332;SDS011;48624;49.812;8.562;2023-02-08T01:26:19;17.63;;;10.03;;
62332;SDS011;48624;49.812;8.562;2023-02-08T01:28:45;19.40;;;9.53;;
62332;SDS011;48624;49.812;8.562;2023-02-08T01:31:12;18.50;;;10.80;;
62332;SDS011;48624;49.812;8.562;2023-02-08T01:33:39;20.13;;;9.60;;
62332;SDS011;48624;49.812;8.562;2023-02-08T01:36:05;16.60;;;9.53;;
62332;SDS011;48624;49.812;8.562;2023-02-08T01:38:31;20.83;;;9.40;;
62332;SDS011;48624;49.812;8.562;2023-02-08T01:40:57;19.93;;;9.67;;
62332;SDS011;48624;49.812;8.562;2023-02-08T01:43:27;19.47;;;10.57;;
62332;SDS011;48624;49.812;8.562;2023-02-08T01:45:57;16.63;;;9.40;;
62332;SDS011;48624;49.812;8.562;2023-02-08T01:48:27;21.57;;;12.23;;
62332;SDS011;48624;49.812;8.562;2023-02-08T01:50:58;19.80;;;10.73;;
62332;SDS011;48624;49.812;8.562;2023-02-08T01:53:28;18.10;;;10.07;;
62332;SDS011;48624;49.812;8.562;2023-02-08T01:55:56;15.60;;;9.77;;
62332;SDS011;48624;49.812;8.562;2023-02-08T01:58:25;15.67;;;10.47;;
62332;SDS011;48624;49.812;8.562;2023-02-08T02:00:53;17.53;;;9.80;;
62332;SDS011;48624;49.812;8.562;2023-02-08T02:03:19;17.27;;;9.57;;
62332;SDS011;48624;49.812;8.562;2023-02-08T02:05:49;20.83;;;11.17;;
62332;SDS011;48624;49.812;8.562;2023-02-08T02:08:20;16.63;;;10.60;;
62332;SDS011;48624;49.812;8.562;2023-02-08T02:10:46;18.80;;;11.00;;
62332;SDS011;48624;49.812;8.562;2023-02-08T02:13:17;21.20;;;10.23;;
62332;SDS011;48624;49.812;8.562;2023-02-08T02:15:45;20.43;;;10.80;;
62332;SDS011;48624;49.812;8.562;2023-02-08T02:18:12;20.57;;;10.37;;
62332;SDS011;48624;49.812;8.562;2023-02-08T02:35:15;15.93;;;9.73;;
62332;SDS011;48624;49.812;8.562;2023-02-08T02:38:09;21.07;;;11.30;;
62332;SDS011;48624;49.812;8.562;2023-02-08T02:40:49;19.87;;;9.97;;
62332;SDS011;48624;49.812;8.562;2023-02-08T02:44:01;17.43;;;9.27;;
62332;SDS011;48624;49.812;8.562;2023-02-08T02:46:37;18.10;;;10.20;;
62332;SDS011;48624;49.812;8.562;2023-02-08T02:49:14;18.07;;;9.73;;
62332;SDS011;48624;49.812;8.562;2023-02-08T02:54:39;21.60;;;11.10;;
62332;SDS011;48624;49.812;8.562;2023-02-08T02:57:10;20.03;;;10.70;;
62332;SDS011;48624;49.812;8.562;2023-02-08T02:59:39;17.37;;;10.33;;
62332;SDS011;48624;49.812;8.562;2023-02-08T03:02:05;22.57;;;11.13;;
62332;SDS011;48624;49.812;8.562;2023-02-08T03:06:59;18.33;;;10.83;;
62332;SDS011;48624;49.812;8.562;2023-02-08T03:12:24;19.53;;;10.00;;
62332;SDS011;48624;49.812;8.562;2023-02-08T03:18:13;18.93;;;11.03;;
62332;SDS011;48624;49.812;8.562;2023-02-08T03:20:53;18.97;;;10.73;;
62332;SDS011;48624;49.812;8.562;2023-02-08T03:26:23;20.60;;;10.00;;
62332;SDS011;48624;49.812;8.562;2023-02-08T03:31:43;19.47;;;10.07;;
62332;SDS011;48624;49.812;8.562;2023-02-08T03:34:15;18.47;;;10.00;;
62332;SDS011;48624;49.812;8.562;2023-02-08T03:36:49;19.77;;;10.37;;
62332;SDS011;48624;49.812;8.562;2023-02-08T03:39:20;14.23;;;9.07;;
62332;SDS011;48624;49.812;8.562;2023-02-08T03:41:50;15.80;;;8.80;;
62332;SDS011;48624;49.812;8.562;2023-02-08T03:44:22;15.27;;;8.17;;
62332;SDS011;48624;49.812;8.562;2023-02-08T03:47:00;15.83;;;8.50;;
62332;SDS011;48624;49.812;8.562;2023-02-08T03:49:30;14.37;;;8.57;;
62332;SDS011;48624;49.812;8.562;2023-02-08T03:52:00;16.03;;;8.87;;
62332;SDS011;48624;49.812;8.562;2023-02-08T03:54:29;18.00;;;9.13;;
62332;SDS011;48624;49.812;8.562;2023-02-08T03:59:48;22.23;;;11.03;;
62332;SDS011;48624;49.812;8.562;2023-02-08T04:02:20;19.37;;;9.93;;
62332;SDS011;48624;49.812;8.562;2023-02-08T04:04:48;16.03;;;9.50;;
62332;SDS011;48624;49.812;8.562;2023-02-08T04:07:16;17.83;;;9.67;;
62332;SDS011;48624;49.812;8.562;2023-02-08T04:09:42;21.00;;;10.43;;
62332;SDS011;48624;49.812;8.562;2023-02-08T04:12:08;14.63;;;9.60;;
62332;SDS011;48624;49.812;8.562;2023-02-08T04:14:33;18.93;;;8.37;;
62332;SDS011;48624;49.812;8.562;2023-02-08T04:17:00;15.87;;;8.50;;
62332;SDS011;48624;49.812;8.562;2023-02-08T04:19:26;7.70;;;5.00;;
62332;SDS011;48624;49.812;8.562;2023-02-08T04:21:51;15.60;;;6.83;;
62332;SDS011;48624;49.812;8.562;2023-02-08T04:24:16;7.70;;;3.77;;
62332;SDS011;48624;49.812;8.562;2023-02-08T04:26:42;15.27;;;7.43;;
62332;SDS011;48624;49.812;8.562;2023-02-08T04:29:07;18.40;;;10.60;;
62332;SDS011;48624;49.812;8.562;2023-02-08T04:31:32;17.37;;;9.50;;
62332;SDS011;48624;49.812;8.562;2023-02-08T04:33:58;9.17;;;5.73;;
62332;SDS011;48624;49.812;8.562;2023-02-08T04:36:23;13.90;;;8.07;;
62332;SDS011;48624;49.812;8.562;2023-02-08T04:38:48;16.77;;;10.63;;
62332;SDS011;48624;49.812;8.562;2023-02-08T04:41:14;13.83;;;8.53;;
62332;SDS011;48624;49.812;8.562;2023-02-08T04:43:39;9.90;;;5.80;;
62332;SDS011;48624;49.812;8.562;2023-02-08T04:46:04;14.87;;;8.70;;
62332;SDS011;48624;49.812;8.562;2023-02-08T04:48:29;21.53;;;10.07;;
62332;SDS011;48624;49.812;8.562;2023-02-08T04:50:55;16.97;;;9.13;;
62332;SDS011;48624;49.812;8.562;2023-02-08T04:53:21;16.23;;;8.67;;
62332;SDS011;48624;49.812;8.562;2023-02-08T04:55:47;16.23;;;8.90;;
62332;SDS011;48624;49.812;8.562;2023-02-08T04:58:12;16.87;;;9.60;;
62332;SDS011;48624;49.812;8.562;2023-02-08T05:00:38;14.87;;;8.77;;
62332;SDS011;48624;49.812;8.562;2023-02-08T05:03:03;20.50;;;9.47;;
62332;SDS011;48624;49.812;8.562;2023-02-08T05:05:28;16.63;;;9.37;;
62332;SDS011;48624;49.812;8.562;2023-02-08T05:07:54;14.10;;;8.40;;
62332;SDS011;48624;49.812;8.562;2023-02-08T05:10:20;15.13;;;8.43;;
62332;SDS011;48624;49.812;8.562;2023-02-08T05:12:45;14.93;;;8.77;;
62332;SDS011;48624;49.812;8.562;2023-02-08T05:15:10;20.73;;;10.20;;
62332;SDS011;48624;49.812;8.562;2023-02-08T05:17:36;18.20;;;8.93;;
62332;SDS011;48624;49.812;8.562;2023-02-08T05:20:03;17.77;;;9.37;;
62332;SDS011;48624;49.812;8.562;2023-02-08T05:22:30;18.63;;;8.33;;
62332;SDS011;48624;49.812;8.562;2023-02-08T05:24:55;15.90;;;8.33;;
62332;SDS011;48624;49.812;8.562;2023-02-08T05:27:21;14.70;;;8.97;;
62332;SDS011;48624;49.812;8.562;2023-02-08T05:29:47;16.67;;;8.83;;
62332;SDS011;48624;49.812;8.562;2023-02-08T05:32:13;13.43;;;6.00;;
62332;SDS011;48624;49.812;8.562;2023-02-08T05:34:38;14.57;;;8.17;;
62332;SDS011;48624;49.812;8.562;2023-02-08T05:37:03;14.07;;;7.03;;
62332;SDS011;48624;49.812;8.562;2023-02-08T05:39:29;12.60;;;7.50;;
62332;SDS011;48624;49.812;8.562;2023-02-08T05:41:54;16.90;;;8.53;;
62332;SDS011;48624;49.812;8.562;2023-02-08T05:44:19;15.37;;;8.87;;
62332;SDS011;48624;49.812;8.562;2023-02-08T05:46:45;18.00;;;8.63;;
62332;SDS011;48624;49.812;8.562;2023-02-08T05:49:10;15.20;;;8.67;;
62332;SDS011;48624;49.812;8.562;2023-02-08T05:51:36;14.43;;;7.37;;
62332;SDS011;48624;49.812;8.562;2023-02-08T05:54:01;13.00;;;7.30;;
62332;SDS011;48624;49.812;8.562;2023-02-08T05:56:26;16.77;;;8.43;;
62332;SDS011;48624;49.812;8.562;2023-02-08T05:58:52;16.33;;;8.07;;
62332;SDS011;48624;49.812;8.562;2023-02-08T06:01:18;13.73;;;7.43;;
62332;SDS011;48624;49.812;8.562;2023-02-08T06:03:45;12.47;;;6.07;;
62332;SDS011;48624;49.812;8.562;2023-02-08T06:06:10;15.57;;;7.83;;
62332;SDS011;48624;49.812;8.562;2023-02-08T06:08:35;15.07;;;7.90;;
62332;SDS011;48624;49.812;8.562;2023-02-08T06:11:02;10.50;;;6.43;;
62332;SDS011;48624;49.812;8.562;2023-02-08T06:13:27;14.40;;;7.03;;
62332;SDS011;48624;49.812;8.562;2023-02-08T06:15:53;13.80;;;7.57;;
62332;SDS011;48624;49.812;8.562;2023-02-08T06:18:19;9.87;;;6.97;;
62332;SDS011;48624;49.812;8.562;2023-02-08T06:20:44;10.47;;;6.77;;
62332;SDS011;48624;49.812;8.562;2023-02-08T06:23:09;9.43;;;4.93;;
62332;SDS011;48624;49.812;8.562;2023-02-08T06:25:35;11.63;;;6.30;;
62332;SDS011;48624;49.812;8.562;2023-02-08T06:28:00;13.03;;;6.80;;
62332;SDS011;48624;49.812;8.562;2023-02-08T06:30:25;12.50;;;7.20;;
62332;SDS011;48624;49.812;8.562;2023-02-08T06:32:50;13.53;;;7.73;;
62332;SDS011;48624;49.812;8.562;2023-02-08T06:35:16;12.47;;;7.33;;
62332;SDS011;48624;49.812;8.562;2023-02-08T06:37:41;13.30;;;8.20;;
62332;SDS011;48624;49.812;8.562;2023-02-08T06:40:07;11.83;;;6.70;;
62332;SDS011;48624;49.812;8.562;2023-02-08T06:42:32;17.07;;;8.93;;
62332;SDS011;48624;49.812;8.562;2023-02-08T06:44:58;14.13;;;7.87;;
62332;SDS011;48624;49.812;8.562;2023-02-08T06:47:24;19.03;;;8.13;;
62332;SDS011;48624;49.812;8.562;2023-02-08T06:49:51;12.20;;;8.07;;
62332;SDS011;48624;49.812;8.562;2023-02-08T06:52:17;17.07;;;10.30;;
62332;SDS011;48624;49.812;8.562;2023-02-08T06:54:43;12.20;;;8.03;;
62332;SDS011;48624;49.812;8.562;2023-02-08T06:57:09;16.80;;;8.53;;
62332;SDS011;48624;49.812;8.562;2023-02-08T06:59:36;14.73;;;8.83;;
62332;SDS011;48624;49.812;8.562;2023-02-08T07:02:02;15.37;;;7.27;;
62332;SDS011;48624;49.812;8.562;2023-02-08T07:04:28;16.97;;;8.43;;
62332;SDS011;48624;49.812;8.562;2023-02-08T07:06:54;12.90;;;7.40;;
62332;SDS011;48624;49.812;8.562;2023-02-08T07:09:19;9.93;;;6.60;;
62332;SDS011;48624;49.812;8.562;2023-02-08T07:11:44;15.70;;;9.23;;
62332;SDS011;48624;49.812;8.562;2023-02-08T07:14:13;11.73;;;6.50;;
62332;SDS011;48624;49.812;8.562;2023-02-08T07:16:39;15.27;;;7.97;;
62332;SDS011;48624;49.812;8.562;2023-02-08T07:19:05;15.73;;;8.50;;
62332;SDS011;48624;49.812;8.562;2023-02-08T07:21:30;19.00;;;5.40;;
62332;SDS011;48624;49.812;8.562;2023-02-08T07:23:57;12.47;;;7.67;;
62332;SDS011;48624;49.812;8.562;2023-02-08T07:26:22;18.67;;;9.10;;
62332;SDS011;48624;49.812;8.562;2023-02-08T07:28:47;16.33;;;8.90;;
62332;SDS011;48624;49.812;8.562;2023-02-08T07:31:13;10.67;;;6.37;;
62332;SDS011;48624;49.812;8.562;2023-02-08T07:33:40;13.03;;;7.03;;
62332;SDS011;48624;49.812;8.562;2023-02-08T07:36:06;11.50;;;7.57;;
62332;SDS011;48624;49.812;8.562;2023-02-08T07:38:32;15.80;;;8.23;;
62332;SDS011;48624;49.812;8.562;2023-02-08T07:41:02;11.00;;;7.73;;
62332;SDS011;48624;49.812;8.562;2023-02-08T07:43:29;21.43;;;10.07;;
62332;SDS011;48624;49.812;8.562;2023-02-08T07:45:55;6.47;;;4.80;;
62332;SDS011;48624;49.812;8.562;2023-02-08T07:48:20;25.10;;;10.77;;
62332;SDS011;48624;49.812;8.562;2023-02-08T07:50:45;15.67;;;8.33;;
62332;SDS011;48624;49.812;8.562;2023-02-08T07:53:11;14.43;;;7.83;;
62332;SDS011;48624;49.812;8.562;2023-02-08T07:55:36;14.07;;;9.27;;
62332;SDS011;48624;49.812;8.562;2023-02-08T07:58:01;8.70;;;5.03;;
62332;SDS011;48624;49.812;8.562;2023-02-08T08:00:26;13.23;;;6.47;;
62332;SDS011;48624;49.812;8.562;2023-02-08T08:02:52;15.13;;;9.13;;
62332;SDS011;48624;49.812;8.562;2023-02-08T08:05:18;19.30;;;9.50;;
62332;SDS011;48624;49.812;8.562;2023-02-08T08:07:43;19.03;;;11.53;;
62332;SDS011;48624;49.812;8.562;2023-02-08T08:10:08;27.53;;;9.63;;
62332;SDS011;48624;49.812;8.562;2023-02-08T08:12:34;23.57;;;13.57;;
62332;SDS011;48624;49.812;8.562;2023-02-08T08:14:59;17.10;;;8.87;;
62332;SDS011;48624;49.812;8.562;2023-02-08T08:17:24;17.63;;;8.63;;
62332;SDS011;48624;49.812;8.562;2023-02-08T08:19:50;15.47;;;10.03;;
62332;SDS011;48624;49.812;8.562;2023-02-08T08:22:15;15.47;;;9.10;;
62332;SDS011;48624;49.812;8.562;2023-02-08T08:24:40;18.87;;;9.17;;
62332;SDS011;48624;49.812;8.562;2023-02-08T08:27:05;19.33;;;8.90;;
62332;SDS011;48624;49.812;8.562;2023-02-08T08:29:32;17.10;;;9.67;;
62332;SDS011;48624;49.812;8.562;2023-02-08T08:31:58;19.30;;;9.63;;
62332;SDS011;48624;49.812;8.562;2023-02-08T08:34:24;9.90;;;4.43;;
62332;SDS011;48624;49.812;8.562;2023-02-08T08:36:57;16.93;;;8.80;;
62332;SDS011;48624;49.812;8.562;2023-02-08T08:39:23;23.03;;;10.40;;
62332;SDS011;48624;49.812;8.562;2023-02-08T08:41:48;15.37;;;8.60;;
62332;SDS011;48624;49.812;8.562;2023-02-08T08:44:14;17.67;;;9.27;;
62332;SDS011;48624;49.812;8.562;2023-02-08T08:46:39;17.30;;;9.27;;
62332;SDS011;48624;49.812;8.562;2023-02-08T08:49:05;19.10;;;8.10;;
62332;SDS011;48624;49.812;8.562;2023-02-08T08:51:30;10.20;;;6.97;;
62332;SDS011;48624;49.812;8.562;2023-02-08T08:53:59;14.43;;;9.07;;
62332;SDS011;48624;49.812;8.562;2023-02-08T08:56:28;15.40;;;7.23;;
62332;SDS011;48624;49.812;8.562;2023-02-08T08:58:54;13.63;;;8.00;;
62332;SDS011;48624;49.812;8.562;2023-02-08T09:01:21;18.70;;;9.20;;
62332;SDS011;48624;49.812;8.562;2023-02-08T09:03:47;20.67;;;10.23;;
62332;SDS011;48624;49.812;8.562;2023-02-08T09:06:12;17.73;;;8.87;;
62332;SDS011;48624;49.812;8.562;2023-02-08T09:08:38;13.77;;;8.87;;
62332;SDS011;48624;49.812;8.562;2023-02-08T09:11:07;14.70;;;8.00;;
62332;SDS011;48624;49.812;8.562;2023-02-08T09:13:36;17.80;;;9.60;;
62332;SDS011;48624;49.812;8.562;2023-02-08T09:16:10;16.00;;;9.40;;
62332;SDS011;48624;49.812;8.562;2023-02-08T09:18:37;15.63;;;8.97;;
62332;SDS011;48624;49.812;8.562;2023-02-08T09:21:07;16.97;;;9.37;;
62332;SDS011;48624;49.812;8.562;2023-02-08T09:23:37;16.23;;;9.03;;
62332;SDS011;48624;49.812;8.562;2023-02-08T09:26:03;18.07;;;10.17;;
62332;SDS011;48624;49.812;8.562;2023-02-08T09:28:30;19.07;;;10.77;;
62332;SDS011;48624;49.812;8.562;2023-02-08T09:30:55;23.20;;;10.50;;
62332;SDS011;48624;49.812;8.562;2023-02-08T09:33:21;16.67;;;10.40;;
62332;SDS011;48624;49.812;8.562;2023-02-08T09:35:46;17.33;;;9.77;;
62332;SDS011;48624;49.812;8.562;2023-02-08T09:38:11;17.37;;;9.63;;
62332;SDS011;48624;49.812;8.562;2023-02-08T09:41:21;12.87;;;8.00;;
62332;SDS011;48624;49.812;8.562;2023-02-08T09:46:20;11.83;;;7.10;;
62332;SDS011;48624;49.812;8.562;2023-02-08T09:48:51;19.53;;;9.63;;
62332;SDS011;48624;49.812;8.562;2023-02-08T09:51:37;20.17;;;9.83;;
62332;SDS011;48624;49.812;8.562;2023-02-08T09:54:11;17.60;;;10.10;;
62332;SDS011;48624;49.812;8.562;2023-02-08T09:56:42;18.83;;;9.83;;
62332;SDS011;48624;49.812;8.562;2023-02-08T10:01:48;18.47;;;8.47;;
62332;SDS011;48624;49.812;8.562;2023-02-08T10:05:03;14.37;;;8.47;;
62332;SDS011;48624;49.812;8.562;2023-02-08T10:07:12;15.60;;;8.57;;
62332;SDS011;48624;49.812;8.562;2023-02-08T10:09:37;14.83;;;7.47;;
62332;SDS011;48624;49.812;8.562;2023-02-08T10:20:02;15.73;;;8.17;;
62332;SDS011;48624;49.812;8.562;2023-02-08T10:25:54;14.60;;;8.20;;
62332;SDS011;48624;49.812;8.562;2023-02-08T10:35:12;11.93;;;6.83;;
62332;SDS011;48624;49.812;8.562;2023-02-08T10:37:42;15.40;;;8.13;;
62332;SDS011;48624;49.812;8.562;2023-02-08T10:42:44;13.60;;;6.38;;
62332;SDS011;48624;49.812;8.562;2023-02-08T10:48:20;12.77;;;7.80;;
62332;SDS011;48624;49.812;8.562;2023-02-08T10:50:53;13.18;;;7.03;;
62332;SDS011;48624;49.812;8.562;2023-02-08T10:53:18;12.65;;;8.43;;
62332;SDS011;48624;49.812;8.562;2023-02-08T10:55:45;13.13;;;8.13;;
62332;SDS011;48624;49.812;8.562;2023-02-08T10:58:16;12.88;;;7.97;;
62332;SDS011;48624;49.812;8.562;2023-02-08T11:00:44;14.50;;;8.43;;
62332;SDS011;48624;49.812;8.562;2023-02-08T11:03:24;12.93;;;7.10;;
62332;SDS011;48624;49.812;8.562;2023-02-08T11:05:51;13.18;;;7.53;;
62332;SDS011;48624;49.812;8.562;2023-02-08T11:08:21;10.88;;;7.03;;
62332;SDS011;48624;49.812;8.562;2023-02-08T11:11:04;11.38;;;6.88;;
62332;SDS011;48624;49.812;8.562;2023-02-08T11:13:40;12.13;;;7.32;;
62332;SDS011;48624;49.812;8.562;2023-02-08T11:16:25;14.50;;;7.45;;
62332;SDS011;48624;49.812;8.562;2023-02-08T11:18:55;12.23;;;7.25;;
62332;SDS011;48624;49.812;8.562;2023-02-08T11:21:31;14.18;;;7.90;;
62332;SDS011;48624;49.812;8.562;2023-02-08T11:24:20;13.25;;;7.50;;
62332;SDS011;48624;49.812;8.562;2023-02-08T11:26:47;14.05;;;7.03;;
62332;SDS011;48624;49.812;8.562;2023-02-08T11:29:15;12.77;;;7.20;;
62332;SDS011;48624;49.812;8.562;2023-02-08T11:31:56;14.80;;;8.57;;
62332;SDS011;48624;49.812;8.562;2023-02-08T11:37:23;13.88;;;8.10;;
62332;SDS011;48624;49.812;8.562;2023-02-08T11:39:53;13.48;;;7.57;;
62332;SDS011;48624;49.812;8.562;2023-02-08T11:42:21;12.45;;;7.22;;
62332;SDS011;48624;49.812;8.562;2023-02-08T11:44:50;11.80;;;6.85;;
62332;SDS011;48624;49.812;8.562;2023-02-08T11:47:22;12.30;;;7.38;;
62332;SDS011;48624;49.812;8.562;2023-02-08T11:49:51;10.07;;;6.35;;
62332;SDS011;48624;49.812;8.562;2023-02-08T11:52:20;16.08;;;8.20;;
62332;SDS011;48624;49.812;8.562;2023-02-08T11:54:46;12.70;;;7.70;;
62332;SDS011;48624;49.812;8.562;2023-02-08T11:59:38;16.90;;;7.63;;
62332;SDS011;48624;49.812;8.562;2023-02-08T12:02:27;10.80;;;6.18;;
62332;SDS011;48624;49.812;8.562;2023-02-08T12:04:59;12.88;;;6.75;;
62332;SDS011;48624;49.812;8.562;2023-02-08T12:07:35;12.82;;;7.25;;
62332;SDS011;48624;49.812;8.562;2023-02-08T12:10:27;13.18;;;6.55;;
62332;SDS011;48624;49.812;8.562;2023-02-08T12:19:07;10.18;;;5.80;;
62332;SDS011;48624;49.812;8.562;2023-02-08T12:24:12;12.55;;;7.10;;
62332;SDS011;48624;49.812;8.562;2023-02-08T12:27:19;10.20;;;6.10;;
62332;SDS011;48624;49.812;8.562;2023-02-08T12:32:52;9.25;;;5.68;;
62332;SDS011;48624;49.812;8.562;2023-02-08T12:35:40;10.82;;;7.05;;
62332;SDS011;48624;49.812;8.562;2023-02-08T12:41:21;10.52;;;6.68;;
62332;SDS011;48624;49.812;8.562;2023-02-08T12:51:53;13.77;;;6.57;;
62332;SDS011;48624;49.812;8.562;2023-02-08T12:57:00;11.27;;;6.75;;
62332;SDS011;48624;49.812;8.562;2023-02-08T12:59:39;14.25;;;7.45;;
62332;SDS011;48624;49.812;8.562;2023-02-08T13:02:16;12.38;;;6.93;;
62332;SDS011;48624;49.812;8.562;2023-02-08T13:04:47;12.95;;;7.53;;
62332;SDS011;48624;49.812;8.562;2023-02-08T13:07:20;9.07;;;5.75;;
62332;SDS011;48624;49.812;8.562;2023-02-08T13:10:07;11.45;;;6.78;;
62332;SDS011;48624;49.812;8.562;2023-02-08T13:12:46;12.57;;;6.07;;
62332;SDS011;48624;49.812;8.562;2023-02-08T13:15:21;8.45;;;5.85;;
62332;SDS011;48624;49.812;8.562;2023-02-08T13:17:54;11.02;;;5.95;;
62332;SDS011;48624;49.812;8.562;2023-02-08T13:20:35;12.82;;;7.93;;
62332;SDS011;48624;49.812;8.562;2023-02-08T13:23:19;16.63;;;6.90;;
62332;SDS011;48624;49.812;8.562;2023-02-08T13:25:53;11.52;;;6.55;;
62332;SDS011;48624;49.812;8.562;2023-02-08T13:28:23;11.38;;;7.00;;
62332;SDS011;48624;49.812;8.562;2023-02-08T13:31:10;11.90;;;6.00;;
62332;SDS011;48624;49.812;8.562;2023-02-08T13:33:40;10.93;;;5.78;;
62332;SDS011;48624;49.812;8.562;2023-02-08T13:38:50;12.45;;;6.93;;
62332;SDS011;48624;49.812;8.562;2023-02-08T13:41:19;9.00;;;6.22;;
62332;SDS011;48624;49.812;8.562;2023-02-08T13:43:48;12.75;;;6.82;;
62332;SDS011;48624;49.812;8.562;2023-02-08T13:46:17;11.63;;;6.32;;
62332;SDS011;48624;49.812;8.562;2023-02-08T13:48:45;12.05;;;6.35;;
62332;SDS011;48624;49.812;8.562;2023-02-08T13:56:36;10.05;;;6.07;;
62332;SDS011;48624;49.812;8.562;2023-02-08T13:59:10;9.00;;;5.32;;
62332;SDS011;48624;49.812;8.562;2023-02-08T14:02:09;9.10;;;;;
62332;SDS011;48624;49.812;8.562;2023-02-08T14:04:42;14.98;;;6.72;;
62332;SDS011;48624;49.812;8.562;2023-02-08T14:09:42;10.98;;;6.95;;
62332;SDS011;48624;49.812;8.562;2023-02-08T14:12:40;11.00;;;6.32;;
62332;SDS011;48624;49.812;8.562;2023-02-08T14:17:46;12.25;;;6.22;;
62332;SDS011;48624;49.812;8.562;2023-02-08T14:20:25;8.98;;;5.60;;
62332;SDS011;48624;49.812;8.562;2023-02-08T14:22:54;11.05;;;5.82;;
62332;SDS011;48624;49.812;8.562;2023-02-08T14:25:23;9.70;;;5.80;;
62332;SDS011;48624;49.812;8.562;2023-02-08T14:28:00;9.20;;;5.93;;
62332;SDS011;48624;49.812;8.562;2023-02-08T14:30:30;10.13;;;5.90;;
62332;SDS011;48624;49.812;8.562;2023-02-08T14:35:30;9.35;;;6.53;;
62332;SDS011;48624;49.812;8.562;2023-02-08T14:43:28;13.73;;;7.10;;
62332;SDS011;48624;49.812;8.562;2023-02-08T14:45:54;8.07;;;4.43;;
62332;SDS011;48624;49.812;8.562;2023-02-08T14:48:20;12.90;;;6.05;;
62332;SDS011;48624;49.812;8.562;2023-02-08T14:50:51;9.98;;;6.22;;
62332;SDS011;48624;49.812;8.562;2023-02-08T14:56:18;7.85;;;5.00;;
62332;SDS011;48624;49.812;8.562;2023-02-08T14:58:50;11.55;;;5.93;;
62332;SDS011;48624;49.812;8.562;2023-02-08T15:01:18;9.52;;;6.45;;
62332;SDS011;48624;49.812;8.562;2023-02-08T15:03:46;10.35;;;6.97;;
62332;SDS011;48624;49.812;8.562;2023-02-08T15:09:01;11.00;;;5.90;;
62332;SDS011;48624;49.812;8.562;2023-02-08T15:11:36;13.02;;;6.97;;
62332;SDS011;48624;49.812;8.562;2023-02-08T15:14:02;11.52;;;6.63;;
62332;SDS011;48624;49.812;8.562;2023-02-08T15:16:32;10.48;;;6.20;;
62332;SDS011;48624;49.812;8.562;2023-02-08T15:19:01;10.13;;;6.20;;
62332;SDS011;48624;49.812;8.562;2023-02-08T15:21:31;9.88;;;6.40;;
62332;SDS011;48624;49.812;8.562;2023-02-08T15:24:01;10.98;;;5.57;;
62332;SDS011;48624;49.812;8.562;2023-02-08T15:26:32;13.13;;;6.28;;
62332;SDS011;48624;49.812;8.562;2023-02-08T15:28:57;9.15;;;5.50;;
62332;SDS011;48624;49.812;8.562;2023-02-08T15:31:34;10.73;;;5.70;;
62332;SDS011;48624;49.812;8.562;2023-02-08T15:33:59;9.35;;;5.20;;
62332;SDS011;48624;49.812;8.562;2023-02-08T15:36:31;12.27;;;6.05;;
62332;SDS011;48624;49.812;8.562;2023-02-08T15:38:58;10.20;;;5.80;;
62332;SDS011;48624;49.812;8.562;2023-02-08T15:41:29;12.13;;;5.82;;
62332;SDS011;48624;49.812;8.562;2023-02-08T15:46:44;11.30;;;6.15;;
62332;SDS011;48624;49.812;8.562;2023-02-08T15:49:14;8.57;;;5.18;;
62332;SDS011;48624;49.812;8.562;2023-02-08T15:51:45;7.70;;;4.60;;
62332;SDS011;48624;49.812;8.562;2023-02-08T15:54:21;9.30;;;5.85;;
62332;SDS011;48624;49.812;8.562;2023-02-08T15:56:48;8.38;;;4.72;;
62332;SDS011;48624;49.812;8.562;2023-02-08T15:59:25;13.85;;;5.20;;
62332;SDS011;48624;49.812;8.562;2023-02-08T16:01:53;10.80;;;5.70;;
62332;SDS011;48624;49.812;8.562;2023-02-08T16:04:21;9.73;;;5.85;;
62332;SDS011;48624;49.812;8.562;2023-02-08T16:06:49;11.18;;;6.07;;
62332;SDS011;48624;49.812;8.562;2023-02-08T16:09:18;9.18;;;5.82;;
62332;SDS011;48624;49.812;8.562;2023-02-08T16:11:47;11.02;;;5.40;;
62332;SDS011;48624;49.812;8.562;2023-02-08T16:14:14;12.65;;;6.15;;
62332;SDS011;48624;49.812;8.562;2023-02-08T16:16:43;11.05;;;6.60;;
62332;SDS011;48624;49.812;8.562;2023-02-08T16:19:30;11.23;;;6.47;;
62332;SDS011;48624;49.812;8.562;2023-02-08T16:24:38;11.77;;;6.25;;
62332;SDS011;48624;49.812;8.562;2023-02-08T16:27:04;11.35;;;6.47;;
62332;SDS011;48624;49.812;8.562;2023-02-08T16:29:38;12.35;;;6.10;;
62332;SDS011;48624;49.812;8.562;2023-02-08T16:32:17;12.32;;;7.40;;
62332;SDS011;48624;49.812;8.562;2023-02-08T16:38:01;12.73;;;7.28;;
62332;SDS011;48624;49.812;8.562;2023-02-08T16:40:52;12.70;;;7.45;;
62332;SDS011;48624;49.812;8.562;2023-02-08T16:43:31;14.37;;;7.30;;
62332;SDS011;48624;49.812;8.562;2023-02-08T16:46:16;14.47;;;7.67;;
62332;SDS011;48624;49.812;8.562;2023-02-08T16:48:50;15.87;;;7.00;;
62332;SDS011;48624;49.812;8.562;2023-02-08T16:51:22;13.83;;;7.20;;
62332;SDS011;48624;49.812;8.562;2023-02-08T16:53:51;13.53;;;6.83;;
62332;SDS011;48624;49.812;8.562;2023-02-08T16:56:19;15.97;;;7.90;;